Список аэропортов
Фактическая погода:

25 июня, 01:00
Температура: +14°C (+13.3*)
Ветер: сев.-западный 3 м/с
Давление: *760 мм
разорв. обл.
кучево-дождевые 1290 м
Время (МСК)Темп. СВетерВлажностьДавлениеОблачностьОсадки
21:00+18З, 5 м/с72%1011 гПаоблачно
22:00+17З, 5 м/с68%1012 гПаоблачно
23:00+16З, 3 м/с81%1013 гПаоблачнодождь
25 июня
00:00+15З, 3 м/с86%1012 гПаоблачнодождь
01:00+15З, 3 м/с88%1013 гПаоблачнодождь
02:00+14З, 3 м/с89%1014 гПаоблачнодождь
03:00+14З, 3 м/с89%1014 гПаоблачнодождь
04:00+14З, 4 м/с86%1014 гПаоблачнодождь
05:00+13З, 4 м/с84%1015 гПаоблачно
06:00+13З, 4 м/с83%1015 гПаоблачно
07:00+14З, 4 м/с75%1016 гПас прояснениями
08:00+15З, 4 м/с63%1016 гПаоблачно
09:00+16З, 4 м/с58%1016 гПас прояснениями
10:00+18З, 4 м/с55%1017 гПаясно
11:00+19З, 4 м/с52%1017 гПас прояснениями
12:00+20З, 4 м/с50%1017 гПас прояснениями
13:00+21З, 3 м/с48%1017 гПас прояснениями
14:00+22З, 3 м/с46%1018 гПамалооблачно
15:00+22З, 3 м/с45%1018 гПаоблачно
16:00+22З, 3 м/с45%1018 гПаоблачно
17:00+22З, 3 м/с45%1018 гПаоблачно
18:00+22З, 2 м/с45%1018 гПаоблачно
19:00+22З, 2 м/с47%1018 гПаоблачно
20:00+21З, 1 м/с50%1018 гПаоблачно
21:00+18З, 1 м/с66%1019 гПас прояснениями
22:00+17З, 1 м/с69%1019 гПаоблачно
23:00+16ЮЗ, 1 м/с73%1019 гПас прояснениями
26 июня
00:00+15ЮЗ, 1 м/с74%1020 гПамалооблачно
01:00+14ЮЗ, 1 м/с79%1020 гПаясно
02:00+13ЮЗ, 1 м/с83%1021 гПаясно
03:00+12ЮЗ, 1 м/с86%1021 гПаясно
04:00+11ЮЗ, 1 м/с91%1022 гПас прояснениями
05:00+11ЮЗ, 1 м/с89%1022 гПамалооблачно
06:00+13ЮЗ, 1 м/с86%1022 гПаясно
07:00+16З, 1 м/с75%1022 гПаясно
08:00+20С, 1 м/с58%1022 гПаясно
09:00+22С, 2 м/с45%1022 гПаясно
10:00+23С, 2 м/с40%1022 гПаясно
11:00+24С, 2 м/с39%1022 гПаясно
12:00+25С, 2 м/с38%1022 гПас прояснениями
13:00+25СЗ, 2 м/с37%1022 гПаоблачно
14:00+26С, 3 м/с36%1022 гПас прояснениями
15:00+26С, 3 м/с34%1022 гПаоблачно
16:00+26С, 3 м/с34%1022 гПаоблачно
17:00+26С, 3 м/с34%1021 гПаоблачно
18:00+25С, 3 м/с34%1021 гПаоблачно
19:00+25С, 3 м/с35%1021 гПаясно
20:00+23С, 2 м/с49%1021 гПаясно
21:00+20СЗ, 1 м/с63%1022 гПамалооблачно